createdAt,value
2019-04-07T00:01:48.262Z,10.30
2019-04-07T00:04:17.589Z,10.28
2019-04-07T00:06:47.619Z,10.25
2019-04-07T00:09:17.587Z,10.20
2019-04-07T00:11:46.993Z,10.20
2019-04-07T00:14:18.700Z,10.20
2019-04-07T00:16:48.329Z,10.17
2019-04-07T00:19:18.128Z,10.15
2019-04-07T00:21:47.943Z,10.14
2019-04-07T00:24:17.295Z,10.13
2019-04-07T00:26:46.600Z,10.14
2019-04-07T00:29:15.897Z,10.14
2019-04-07T00:31:45.220Z,10.14
2019-04-07T00:34:14.523Z,10.14
2019-04-07T00:36:43.853Z,10.12
2019-04-07T00:39:13.219Z,10.12
2019-04-07T00:41:42.939Z,10.10
2019-04-07T00:44:12.527Z,10.09
2019-04-07T00:46:42.248Z,10.09
2019-04-07T00:49:11.630Z,10.09
2019-04-07T00:51:41.088Z,10.09
2019-04-07T00:54:10.386Z,10.09
2019-04-07T01:00:13.104Z,10.11
2019-04-07T01:02:42.940Z,10.11
2019-04-07T01:05:12.713Z,10.09
2019-04-07T01:07:51.288Z,10.09
2019-04-07T01:10:20.561Z,10.07
2019-04-07T01:12:50.148Z,10.05
2019-04-07T01:15:19.776Z,10.04
2019-04-07T01:17:49.866Z,10.02
2019-04-07T01:20:19.581Z,10.01
2019-04-07T01:22:49.490Z,9.99
2019-04-07T01:25:19.418Z,9.98
2019-04-07T01:27:49.123Z,9.97
2019-04-07T01:30:19.201Z,9.97
2019-04-07T01:32:49.106Z,9.96
2019-04-07T01:35:18.423Z,9.93
2019-04-07T01:37:47.758Z,9.92
2019-04-07T01:40:17.702Z,9.91
2019-04-07T01:43:10.680Z,9.89
2019-04-07T01:45:57.639Z,9.90
2019-04-07T01:48:45.853Z,9.91
2019-04-07T01:51:37.525Z,9.89
2019-04-07T01:54:24.975Z,9.86
2019-04-07T01:57:02.341Z,9.85
2019-04-07T01:59:56.242Z,9.83
2019-04-07T02:02:44.508Z,9.83
2019-04-07T02:05:39.176Z,9.83
2019-04-07T02:08:18.954Z,9.84
2019-04-07T02:11:08.692Z,9.84
2019-04-07T02:13:48.296Z,9.85
2019-04-07T02:16:39.921Z,9.87
2019-04-07T02:19:21.944Z,9.86
2019-04-07T02:22:06.951Z,9.84
2019-04-07T02:24:47.643Z,9.85
2019-04-07T02:27:44.967Z,9.85
2019-04-07T02:30:33.053Z,9.86
2019-04-07T02:33:22.490Z,9.87
2019-04-07T02:36:15.608Z,9.87
2019-04-07T02:38:40.331Z,9.85
2019-04-07T02:41:29.183Z,9.84
2019-04-07T02:44:13.522Z,9.83
2019-04-07T02:47:00.870Z,9.82
2019-04-07T02:49:55.899Z,9.81
2019-04-07T02:52:47.357Z,9.81
2019-04-07T02:55:42.273Z,9.79
2019-04-07T02:58:33.464Z,9.76
2019-04-07T03:01:22.163Z,9.75
2019-04-07T03:04:23.110Z,9.76
2019-04-07T03:07:16.298Z,9.74
2019-04-07T03:10:07.697Z,9.73
2019-04-07T03:12:55.926Z,9.73
2019-04-07T03:15:42.242Z,9.73
2019-04-07T03:18:31.547Z,9.72
2019-04-07T03:21:15.741Z,9.71
2019-04-07T03:23:55.373Z,9.69
2019-04-07T03:26:42.669Z,9.66
2019-04-07T03:29:33.923Z,9.66
2019-04-07T03:32:24.635Z,9.66
2019-04-07T03:35:25.108Z,9.63
2019-04-07T03:38:23.165Z,9.62
2019-04-07T03:40:56.958Z,9.58
2019-04-07T03:43:47.956Z,9.57
2019-04-07T03:46:36.500Z,9.56
2019-04-07T03:49:20.865Z,9.54
2019-04-07T03:52:17.294Z,9.51
2019-04-07T03:55:24.627Z,9.48
2019-04-07T03:58:25.893Z,9.45
2019-04-07T04:01:19.067Z,9.43
2019-04-07T04:03:56.603Z,9.42
2019-04-07T04:07:17.809Z,9.39
2019-04-07T04:09:45.478Z,9.38
2019-04-07T04:12:27.691Z,9.37
2019-04-07T04:15:04.655Z,9.35
2019-04-07T04:17:34.665Z,9.35
2019-04-07T04:20:04.311Z,9.35
2019-04-07T04:22:33.655Z,9.34
2019-04-07T04:25:03.059Z,9.35
2019-04-07T04:27:33.189Z,9.34
2019-04-07T04:30:03.067Z,9.36
2019-04-07T04:32:32.881Z,9.36
2019-04-07T04:35:03.174Z,9.37
2019-04-07T04:37:40.468Z,9.37
2019-04-07T04:40:03.926Z,9.38
2019-04-07T04:42:33.951Z,9.40
2019-04-07T04:45:04.275Z,9.41
2019-04-07T04:47:33.988Z,9.41
2019-04-07T04:50:03.935Z,9.41
2019-04-07T04:52:33.271Z,9.41
2019-04-07T04:55:02.595Z,9.42
2019-04-07T04:57:32.135Z,9.41
2019-04-07T05:00:01.920Z,9.41
2019-04-07T05:02:31.470Z,9.41
2019-04-07T05:05:02.408Z,9.43
2019-04-07T05:07:32.002Z,9.43
2019-04-07T05:10:01.552Z,9.43
2019-04-07T05:12:31.344Z,9.43
2019-04-07T05:15:01.610Z,9.43
2019-04-07T05:17:31.133Z,9.44
2019-04-07T05:20:00.472Z,9.43
2019-04-07T05:22:30.621Z,9.43
2019-04-07T05:24:59.994Z,9.44
2019-04-07T05:27:29.373Z,9.43
2019-04-07T05:29:58.617Z,9.43
2019-04-07T05:32:28.573Z,9.42
2019-04-07T05:34:57.936Z,9.42
2019-04-07T05:37:27.241Z,9.42
2019-04-07T05:39:56.640Z,9.44
2019-04-07T05:42:25.937Z,9.44
2019-04-07T05:44:55.997Z,9.44
2019-04-07T05:47:25.526Z,9.45
2019-04-07T05:49:57.463Z,9.44
2019-04-07T05:52:25.814Z,9.45
2019-04-07T05:54:56.168Z,9.45
2019-04-07T05:57:26.185Z,9.47
2019-04-07T05:59:55.947Z,9.48
2019-04-07T06:02:25.605Z,9.48
2019-04-07T06:04:54.907Z,9.48
2019-04-07T06:07:28.786Z,9.49
2019-04-07T06:09:55.717Z,9.49
2019-04-07T06:12:25.033Z,9.51
2019-04-07T06:14:54.339Z,9.53
2019-04-07T06:17:26.379Z,9.52
2019-04-07T06:19:54.734Z,9.56
2019-04-07T06:22:24.777Z,9.56
2019-04-07T06:24:54.029Z,9.60
2019-04-07T06:27:23.988Z,9.62
2019-04-07T06:29:57.188Z,9.63
2019-04-07T06:32:25.465Z,9.65
2019-04-07T06:34:55.163Z,9.65
2019-04-07T06:37:28.842Z,9.66
2019-04-07T06:39:55.790Z,9.65
2019-04-07T06:42:25.150Z,9.65
2019-04-07T06:44:55.329Z,9.65
2019-04-07T06:47:32.874Z,9.66
2019-04-07T06:50:20.814Z,9.65
2019-04-07T06:53:03.211Z,9.64
2019-04-07T06:55:59.032Z,9.65
2019-04-07T06:58:50.440Z,9.63
2019-04-07T07:01:41.706Z,9.64
2019-04-07T07:07:50.995Z,9.65
2019-04-07T07:10:41.135Z,9.64
2019-04-07T07:13:29.227Z,9.63
2019-04-07T07:16:16.951Z,9.62
2019-04-07T07:18:56.082Z,9.62
2019-04-07T07:21:54.384Z,9.59
2019-04-07T07:24:25.682Z,9.58
2019-04-07T07:26:57.759Z,9.58
2019-04-07T07:29:26.864Z,9.59
2019-04-07T07:32:01.947Z,9.62
2019-04-07T07:34:27.384Z,9.65
2019-04-07T07:36:58.052Z,9.67
2019-04-07T07:39:28.364Z,9.70
2019-04-07T07:41:58.413Z,9.73
2019-04-07T07:44:27.847Z,9.74
2019-04-07T07:46:58.096Z,9.75
2019-04-07T07:52:59.233Z,9.79
2019-04-07T07:55:33.822Z,9.83
2019-04-07T07:57:59.606Z,9.89
2019-04-07T08:00:28.925Z,9.96
2019-04-07T08:02:58.294Z,10.02
2019-04-07T08:05:32.737Z,10.09
2019-04-07T08:07:59.345Z,10.16
2019-04-07T08:10:29.112Z,10.24
2019-04-07T08:12:59.522Z,10.31
2019-04-07T08:15:32.228Z,10.37
2019-04-07T08:18:03.372Z,10.42
2019-04-07T08:20:31.853Z,10.48
2019-04-07T08:23:02.615Z,10.53
2019-04-07T08:25:32.368Z,10.60
2019-04-07T08:28:03.602Z,10.64
2019-04-07T08:30:32.910Z,10.71
2019-04-07T08:33:03.414Z,10.77
2019-04-07T08:35:35.672Z,10.82
2019-04-07T08:38:04.595Z,10.89
2019-04-07T08:40:36.456Z,10.96
2019-04-07T08:43:05.054Z,11.01
2019-04-07T08:45:35.049Z,11.11
2019-04-07T08:48:05.156Z,11.11
2019-04-07T08:50:37.449Z,11.16
2019-04-07T08:53:14.115Z,11.16
2019-04-07T08:55:54.355Z,11.23
2019-04-07T08:58:25.857Z,11.28
2019-04-07T09:00:53.951Z,11.37
2019-04-07T09:03:23.448Z,11.37
2019-04-07T09:05:56.559Z,11.44
2019-04-07T09:08:24.372Z,11.44
2019-04-07T09:11:01.967Z,11.49
2019-04-07T09:13:33.887Z,11.54
2019-04-07T09:16:25.313Z,11.53
2019-04-07T09:19:12.489Z,11.67
2019-04-07T09:22:08.306Z,11.67
2019-04-07T09:24:55.332Z,11.84
2019-04-07T09:27:43.393Z,11.93
2019-04-07T09:30:44.033Z,11.93
2019-04-07T09:33:42.118Z,12.01
2019-04-07T09:36:49.954Z,12.08
2019-04-07T09:39:55.138Z,12.18
2019-04-07T09:42:29.648Z,12.38
2019-04-07T09:45:24.278Z,12.48
2019-04-07T09:48:07.753Z,12.48
2019-04-07T09:51:05.071Z,12.78
2019-04-07T09:53:41.866Z,12.93
2019-04-07T09:56:31.058Z,12.93
2019-04-07T09:59:28.527Z,13.07
2019-04-07T10:02:15.641Z,13.18
2019-04-07T10:05:02.484Z,13.32
2019-04-07T10:07:44.074Z,13.43
2019-04-07T10:10:22.663Z,13.55
2019-04-07T10:13:16.818Z,13.66
2019-04-07T10:16:14.865Z,13.73
2019-04-07T10:19:03.358Z,13.79
2019-04-07T10:21:57.440Z,13.78
2019-04-07T10:24:53.715Z,13.80
2019-04-07T10:27:40.665Z,13.79
2019-04-07T10:30:35.967Z,13.88
2019-04-07T10:33:22.734Z,13.92
2019-04-07T10:36:00.125Z,14.00
2019-04-07T10:38:48.356Z,14.05
2019-04-07T10:41:42.706Z,14.10
2019-04-07T10:44:24.975Z,14.13
2019-04-07T10:47:13.234Z,14.13
2019-04-07T10:50:05.162Z,14.12
2019-04-07T10:52:47.817Z,14.11
2019-04-07T10:55:24.425Z,14.12
2019-04-07T10:58:15.556Z,14.12
2019-04-07T11:01:02.894Z,14.11
2019-04-07T11:03:53.674Z,14.16
2019-04-07T11:06:50.174Z,14.16
2019-04-07T11:09:47.689Z,14.12
2019-04-07T11:12:48.043Z,13.99
2019-04-07T11:15:48.792Z,13.85
2019-04-07T11:22:17.587Z,13.69
2019-04-07T11:24:59.489Z,13.62
2019-04-07T11:27:48.439Z,13.61
2019-04-07T11:30:49.689Z,13.61
2019-04-07T11:33:24.833Z,13.58
2019-04-07T11:36:23.466Z,13.55
2019-04-07T11:39:12.162Z,13.53
2019-04-07T11:42:13.051Z,13.40
2019-04-07T11:44:56.119Z,13.45
2019-04-07T11:47:44.990Z,13.42
2019-04-07T11:50:23.407Z,13.42
2019-04-07T11:53:03.879Z,13.42
2019-04-07T11:56:06.226Z,13.41
2019-04-07T11:58:45.235Z,13.41
2019-04-07T12:01:43.707Z,13.41
2019-04-07T12:04:34.554Z,13.44
2019-04-07T12:07:20.308Z,13.49
2019-04-07T12:10:05.114Z,13.53
2019-04-07T12:12:53.843Z,13.54
2019-04-07T12:15:39.947Z,13.58
2019-04-07T12:18:23.449Z,13.59
2019-04-07T12:21:05.257Z,13.63
2019-04-07T12:23:41.803Z,13.66
2019-04-07T12:26:39.666Z,13.65
2019-04-07T12:29:25.489Z,13.67
2019-04-07T12:32:12.439Z,13.71
2019-04-07T12:34:59.892Z,13.72
2019-04-07T12:37:58.974Z,13.74
2019-04-07T12:40:43.122Z,13.81
2019-04-07T12:43:30.348Z,13.86
2019-04-07T12:46:10.207Z,13.91
2019-04-07T12:48:52.265Z,14.00
2019-04-07T12:51:47.222Z,14.07
2019-04-07T12:54:43.712Z,14.24
2019-04-07T12:57:36.811Z,14.43
2019-04-07T13:00:24.868Z,14.48
2019-04-07T13:03:22.394Z,14.56
2019-04-07T13:06:06.249Z,14.62
2019-04-07T13:08:58.257Z,14.76
2019-04-07T13:11:38.656Z,14.93
2019-04-07T13:14:25.725Z,15.11
2019-04-07T17:29:30.071Z,18.64
2019-04-07T17:32:01.701Z,18.52
2019-04-07T17:34:30.560Z,18.46
2019-04-07T17:37:00.818Z,18.36
2019-04-07T17:39:42.061Z,18.20
2019-04-07T17:42:13.214Z,18.08
2019-04-07T17:44:59.793Z,17.96
2019-04-07T17:47:36.714Z,17.81
2019-04-07T17:50:20.104Z,17.61
2019-04-07T17:53:06.682Z,17.40
2019-04-07T17:56:10.884Z,17.19
2019-04-07T17:59:08.743Z,17.01
2019-04-07T18:02:04.487Z,16.82
2019-04-07T18:04:53.628Z,16.63
2019-04-07T18:07:46.602Z,16.46
2019-04-07T18:10:56.013Z,16.31
2019-04-07T18:13:49.999Z,16.14
2019-04-07T18:16:46.164Z,15.99
2019-04-07T18:19:36.136Z,15.86
2019-04-07T18:22:42.921Z,15.73
2019-04-07T18:25:40.180Z,15.64
2019-04-07T18:28:32.494Z,15.49
2019-04-07T18:31:20.497Z,15.35
2019-04-07T18:34:08.698Z,15.24
2019-04-07T18:37:07.042Z,15.12
2019-04-07T18:40:02.443Z,14.98
2019-04-07T18:42:51.077Z,14.90
2019-04-07T18:45:46.558Z,14.73
2019-04-07T18:48:36.037Z,14.51
2019-04-07T18:51:19.054Z,14.51
2019-04-07T18:54:02.721Z,14.42
2019-04-07T18:56:48.071Z,14.33
2019-04-07T18:59:42.179Z,14.24
2019-04-07T19:02:38.135Z,14.15
2019-04-07T19:05:25.333Z,14.07
2019-04-07T19:08:17.483Z,13.99
2019-04-07T19:11:16.003Z,13.92
2019-04-07T19:14:33.454Z,13.83
2019-04-07T19:17:02.937Z,13.73
2019-04-07T19:19:51.207Z,13.67
2019-04-07T19:22:39.809Z,13.60
2019-04-07T19:25:21.560Z,13.51
2019-04-07T19:28:06.004Z,13.43
2019-04-07T19:30:50.122Z,13.37
2019-04-07T19:33:37.920Z,13.32
2019-04-07T19:36:32.203Z,13.23
2019-04-07T19:39:30.533Z,13.15
2019-04-07T19:42:18.641Z,13.13
2019-04-07T19:45:05.749Z,13.06
2019-04-07T19:47:54.824Z,12.99
2019-04-07T19:50:46.910Z,12.93
2019-04-07T19:53:44.303Z,12.88
2019-04-07T19:56:48.298Z,12.83
2019-04-07T19:59:39.343Z,12.78
2019-04-07T20:05:21.448Z,12.69
2019-04-07T20:08:32.335Z,12.61
2019-04-07T20:11:16.062Z,12.58
2019-04-07T20:13:56.342Z,12.52
2019-04-07T20:16:32.737Z,12.46
2019-04-07T20:19:16.666Z,12.40
2019-04-07T20:22:04.716Z,12.37
2019-04-07T20:24:49.194Z,12.30
2019-04-07T20:27:56.005Z,12.28
2019-04-07T20:30:45.614Z,12.28
2019-04-07T20:33:32.368Z,12.22
2019-04-07T20:36:17.673Z,12.17
2019-04-07T20:38:52.269Z,12.12
2019-04-07T20:41:28.269Z,12.05
2019-04-07T20:44:17.737Z,12.05
2019-04-07T20:47:26.403Z,12.02
2019-04-07T20:50:21.744Z,11.96
2019-04-07T20:53:31.092Z,11.91
2019-04-07T20:56:12.660Z,11.84
2019-04-07T20:58:59.381Z,11.84
2019-04-07T21:01:58.714Z,11.87
2019-04-07T21:04:53.522Z,11.79
2019-04-07T21:07:33.563Z,11.79
2019-04-07T21:10:37.903Z,11.77
2019-04-07T21:13:32.232Z,11.65
2019-04-07T21:16:28.272Z,11.64
2019-04-07T21:19:18.830Z,11.64
2019-04-07T21:22:00.068Z,11.52
2019-04-07T21:24:51.226Z,11.47
2019-04-07T21:27:41.513Z,11.47
2019-04-07T21:30:42.960Z,11.40
2019-04-07T21:33:28.196Z,11.17
2019-04-07T21:36:32.225Z,11.17
2019-04-07T21:39:23.109Z,11.08
2019-04-07T21:42:11.475Z,11.03
2019-04-07T21:44:59.895Z,11.03
2019-04-07T21:47:39.755Z,10.99
2019-04-07T21:50:26.946Z,10.99
2019-04-07T21:53:28.863Z,10.98
2019-04-07T21:56:23.414Z,10.95
2019-04-07T21:59:18.737Z,10.95
2019-04-07T22:02:11.451Z,10.92
2019-04-07T22:05:02.860Z,10.91
2019-04-07T22:07:44.897Z,10.88
2019-04-07T22:10:18.739Z,10.83
2019-04-07T22:12:46.185Z,10.81
2019-04-07T22:15:15.711Z,10.77
2019-04-07T22:17:45.792Z,10.76
2019-04-07T22:20:18.819Z,10.74
2019-04-07T22:22:47.128Z,10.72
2019-04-07T22:25:22.761Z,10.68
2019-04-07T22:27:54.468Z,10.64
2019-04-07T22:30:24.144Z,10.64
2019-04-07T22:32:54.133Z,10.63
2019-04-07T22:35:25.536Z,10.60
2019-04-07T22:37:54.898Z,10.57
2019-04-07T22:40:25.577Z,10.54
2019-04-07T22:42:54.896Z,10.46
2019-04-07T22:45:26.501Z,10.46
2019-04-07T22:47:55.313Z,10.44
2019-04-07T22:50:25.278Z,10.41
2019-04-07T22:52:55.359Z,10.40
2019-04-07T22:55:24.925Z,10.35
2019-04-07T22:57:56.281Z,10.35
2019-04-07T23:00:26.791Z,10.36
2019-04-07T23:02:56.437Z,10.35
2019-04-07T23:05:25.758Z,10.35
2019-04-07T23:07:55.112Z,10.35
2019-04-07T23:10:25.160Z,10.37
2019-04-07T23:12:55.234Z,10.35
2019-04-07T23:15:37.432Z,10.31
2019-04-07T23:17:57.910Z,10.31
2019-04-07T23:20:27.338Z,10.32
2019-04-07T23:22:56.713Z,10.31
2019-04-07T23:25:26.088Z,10.27
2019-04-07T23:27:58.465Z,10.27
2019-04-07T23:30:29.150Z,10.23
2019-04-07T23:32:58.516Z,10.21
2019-04-07T23:35:28.764Z,10.19
2019-04-07T23:37:58.113Z,10.16
2019-04-07T23:40:28.070Z,10.16
2019-04-07T23:42:59.491Z,10.14
2019-04-07T23:45:28.844Z,10.14
2019-04-07T23:47:58.764Z,10.10
2019-04-07T23:50:30.388Z,10.09
2019-04-07T23:53:21.419Z,10.06
2019-04-07T23:55:50.761Z,10.07
2019-04-07T23:58:20.922Z,10.05
